createdAt,value
2023-05-25T00:01:29.579Z,10.10
2023-05-25T00:03:56.051Z,9.85
2023-05-25T00:06:25.308Z,11.52
2023-05-25T00:08:54.684Z,14.02
2023-05-25T00:11:22.657Z,12.63
2023-05-25T00:13:49.154Z,10.82
2023-05-25T00:16:15.590Z,11.32
2023-05-25T00:18:42.589Z,11.20
2023-05-25T00:21:09.122Z,12.10
2023-05-25T00:23:36.165Z,12.25
2023-05-25T00:26:03.424Z,11.75
2023-05-25T00:28:29.792Z,12.07
2023-05-25T00:30:56.241Z,13.35
2023-05-25T00:33:22.618Z,14.02
2023-05-25T00:35:49.339Z,14.85
2023-05-25T00:38:17.187Z,12.73
2023-05-25T00:40:44.718Z,13.38
2023-05-25T00:43:12.461Z,18.38
2023-05-25T00:45:39.278Z,12.38
2023-05-25T00:48:06.348Z,12.40
2023-05-25T00:50:37.508Z,16.77
2023-05-25T00:53:04.053Z,12.13
2023-05-25T00:55:33.174Z,11.95
2023-05-25T00:58:03.402Z,13.48
2023-05-25T01:00:32.228Z,12.63
2023-05-25T01:02:59.319Z,11.48
2023-05-25T01:05:28.389Z,12.70
2023-05-25T01:07:58.883Z,14.30
2023-05-25T01:10:26.239Z,14.27
2023-05-25T01:12:54.767Z,12.90
2023-05-25T01:15:22.754Z,16.00
2023-05-25T01:17:53.232Z,14.60
2023-05-25T01:20:19.919Z,14.43
2023-05-25T01:22:53.742Z,17.23
2023-05-25T01:25:24.660Z,15.10
2023-05-25T01:27:56.991Z,14.38
2023-05-25T01:30:25.868Z,16.23
2023-05-25T01:32:53.752Z,15.93
2023-05-25T01:35:21.167Z,14.27
2023-05-25T01:37:49.323Z,15.75
2023-05-25T01:40:15.984Z,16.30
2023-05-25T01:42:42.348Z,15.23
2023-05-25T01:45:10.903Z,10.57
2023-05-25T01:47:53.649Z,19.10
2023-05-25T01:50:26.392Z,12.82
2023-05-25T01:52:59.333Z,13.25
2023-05-25T01:55:28.578Z,14.18
2023-05-25T01:57:58.668Z,15.75
2023-05-25T02:00:26.820Z,13.18
2023-05-25T02:02:54.281Z,13.88
2023-05-25T02:05:22.056Z,13.50
2023-05-25T02:07:48.573Z,13.82
2023-05-25T02:10:15.741Z,13.07
2023-05-25T02:12:42.114Z,14.25
2023-05-25T02:15:09.134Z,15.35
2023-05-25T02:17:36.468Z,16.95
2023-05-25T02:20:03.964Z,18.58
2023-05-25T02:22:30.664Z,16.70
2023-05-25T02:24:57.037Z,22.30
2023-05-25T02:27:24.109Z,20.75
2023-05-25T02:29:52.456Z,19.58
2023-05-25T02:32:18.965Z,17.98
2023-05-25T02:34:46.206Z,17.70
2023-05-25T02:37:12.582Z,22.20
2023-05-25T02:39:39.356Z,21.65
2023-05-25T02:42:05.917Z,20.10
2023-05-25T02:44:32.965Z,26.73
2023-05-25T02:46:59.582Z,20.27
2023-05-25T02:49:26.029Z,23.98
2023-05-25T02:51:52.331Z,27.80
2023-05-25T02:54:18.659Z,22.17
2023-05-25T02:56:45.052Z,23.33
2023-05-25T02:59:11.574Z,29.15
2023-05-25T03:01:40.012Z,22.60
2023-05-25T03:04:06.380Z,23.33
2023-05-25T03:06:32.822Z,26.48
2023-05-25T03:08:59.146Z,22.52
2023-05-25T03:11:26.169Z,24.10
2023-05-25T03:13:52.486Z,26.60
2023-05-25T03:16:18.923Z,22.52
2023-05-25T03:18:45.913Z,25.70
2023-05-25T03:21:12.248Z,27.10
2023-05-25T03:23:38.584Z,24.40
2023-05-25T03:26:05.070Z,25.13
2023-05-25T03:28:31.403Z,29.25
2023-05-25T03:30:57.735Z,26.95
2023-05-25T03:33:24.099Z,24.08
2023-05-25T03:35:51.049Z,29.33
2023-05-25T03:38:17.422Z,23.90
2023-05-25T03:40:43.760Z,23.90
2023-05-25T03:43:10.122Z,22.05
2023-05-25T03:45:36.458Z,22.10
2023-05-25T03:48:02.884Z,24.67
2023-05-25T03:50:29.199Z,27.75
2023-05-25T03:52:56.194Z,25.27
2023-05-25T03:55:22.535Z,24.58
2023-05-25T03:57:48.896Z,23.58
2023-05-25T04:00:16.212Z,21.95
2023-05-25T04:02:42.662Z,24.73
2023-05-25T04:05:09.791Z,22.70
2023-05-25T04:07:36.603Z,23.75
2023-05-25T04:10:03.869Z,21.80
2023-05-25T04:12:30.408Z,19.75
2023-05-25T04:14:56.724Z,22.05
2023-05-25T04:17:24.418Z,25.73
2023-05-25T04:19:51.273Z,21.98
2023-05-25T04:22:18.000Z,23.70
2023-05-25T04:24:44.691Z,22.85
2023-05-25T04:27:11.780Z,20.80
2023-05-25T04:29:38.151Z,23.70
2023-05-25T04:32:05.451Z,20.10
2023-05-25T04:34:33.108Z,20.65
2023-05-25T04:37:04.755Z,25.80
2023-05-25T04:39:32.071Z,19.75
2023-05-25T04:41:58.539Z,20.75
2023-05-25T04:44:29.056Z,19.05
2023-05-25T04:46:55.458Z,18.95
2023-05-25T04:49:22.296Z,23.50
2023-05-25T04:51:48.652Z,22.08
2023-05-25T04:54:15.102Z,19.10
2023-05-25T04:56:41.477Z,21.35
2023-05-25T04:59:07.834Z,20.38
2023-05-25T05:01:39.872Z,22.77
2023-05-25T05:04:06.478Z,21.85
2023-05-25T05:06:33.615Z,23.35
2023-05-25T05:09:00.528Z,25.23
2023-05-25T05:11:27.590Z,21.40
2023-05-25T05:13:54.113Z,21.40
2023-05-25T05:16:20.523Z,21.55
2023-05-25T05:18:47.607Z,23.98
2023-05-25T05:21:14.001Z,23.52
2023-05-25T05:23:42.502Z,24.90
2023-05-25T05:26:10.748Z,21.75
2023-05-25T05:28:37.142Z,24.35
2023-05-25T05:31:03.642Z,26.05
2023-05-25T05:33:30.564Z,25.92
2023-05-25T05:35:57.608Z,23.50
2023-05-25T05:38:23.981Z,17.88
2023-05-25T05:40:50.416Z,23.50
2023-05-25T05:43:16.822Z,21.42
2023-05-25T05:45:43.561Z,21.67
2023-05-25T05:48:10.362Z,24.20
2023-05-25T05:50:36.910Z,24.90
2023-05-25T05:53:04.390Z,24.23
2023-05-25T05:55:30.782Z,22.83
2023-05-25T05:57:57.185Z,25.77
2023-05-25T06:00:23.942Z,23.10
2023-05-25T06:02:50.791Z,23.42
2023-05-25T06:05:17.941Z,22.48
2023-05-25T06:07:44.631Z,21.33
2023-05-25T06:10:11.867Z,20.98
2023-05-25T06:12:38.215Z,20.60
2023-05-25T06:15:05.710Z,24.90
2023-05-25T06:17:32.110Z,25.95
2023-05-25T06:19:58.667Z,20.67
2023-05-25T06:22:27.229Z,21.55
2023-05-25T06:24:53.673Z,23.58
2023-05-25T06:27:22.404Z,21.00
2023-05-25T06:29:48.722Z,20.40
2023-05-25T06:32:15.564Z,19.17
2023-05-25T06:34:42.010Z,20.27
2023-05-25T06:37:08.455Z,22.73
2023-05-25T06:39:34.889Z,26.30
2023-05-25T06:42:01.309Z,22.13
2023-05-25T06:44:28.381Z,20.25
2023-05-25T06:46:54.791Z,21.33
2023-05-25T06:49:21.435Z,23.25
2023-05-25T06:51:48.312Z,23.70
2023-05-25T06:54:14.904Z,22.25
2023-05-25T06:56:41.374Z,20.33
2023-05-25T06:59:07.762Z,25.13
2023-05-25T07:01:35.827Z,21.38
2023-05-25T07:04:02.218Z,22.85
2023-05-25T07:06:28.598Z,19.42
2023-05-25T07:08:55.100Z,22.38
2023-05-25T07:11:22.599Z,23.33
2023-05-25T07:13:49.060Z,21.38
2023-05-25T07:16:15.614Z,20.95
2023-05-25T07:18:42.670Z,19.85
2023-05-25T07:21:09.330Z,21.73
2023-05-25T07:23:35.699Z,19.88
2023-05-25T07:26:04.216Z,20.70
2023-05-25T07:28:32.034Z,23.73
2023-05-25T07:30:58.440Z,22.48
2023-05-25T07:33:24.890Z,21.45
2023-05-25T07:35:52.016Z,18.05
2023-05-25T07:38:18.403Z,19.65
2023-05-25T07:40:46.634Z,21.45
2023-05-25T07:43:13.048Z,22.83
2023-05-25T07:45:39.750Z,18.42
2023-05-25T07:48:07.229Z,19.90
2023-05-25T07:50:33.694Z,16.98
2023-05-25T07:53:00.753Z,23.45
2023-05-25T07:55:27.235Z,26.00
2023-05-25T07:57:53.580Z,21.08
2023-05-25T08:00:20.842Z,17.45
2023-05-25T08:02:47.341Z,18.48
2023-05-25T08:05:13.967Z,16.85
2023-05-25T08:07:42.740Z,19.08
2023-05-25T08:10:10.708Z,20.48
2023-05-25T08:12:47.945Z,18.25
2023-05-25T08:15:14.892Z,19.40
2023-05-25T08:17:41.360Z,18.98
2023-05-25T08:20:09.781Z,19.27
2023-05-25T08:22:36.235Z,19.77
2023-05-25T08:25:03.818Z,20.88
2023-05-25T08:27:32.363Z,18.77
2023-05-25T08:30:00.937Z,18.30
2023-05-25T08:32:27.494Z,20.67
2023-05-25T08:34:53.925Z,18.88
2023-05-25T08:37:21.912Z,15.90
2023-05-25T08:39:51.371Z,16.65
2023-05-25T08:42:17.869Z,23.00
2023-05-25T08:44:45.785Z,16.48
2023-05-25T08:47:12.766Z,15.85
2023-05-25T08:49:40.559Z,14.82
2023-05-25T08:52:13.128Z,14.88
2023-05-25T08:54:43.148Z,15.55
2023-05-25T08:57:14.695Z,14.55
2023-05-25T08:59:47.285Z,14.65
2023-05-25T09:02:25.038Z,14.48
2023-05-25T09:04:52.075Z,14.75
2023-05-25T09:07:18.986Z,15.20
2023-05-25T09:09:47.393Z,15.05
2023-05-25T09:12:15.030Z,14.55
2023-05-25T09:14:44.962Z,14.43
2023-05-25T09:17:12.992Z,12.90
2023-05-25T09:19:39.388Z,14.80
2023-05-25T09:22:15.086Z,13.43
2023-05-25T09:24:43.490Z,13.77
2023-05-25T09:27:11.681Z,15.55
2023-05-25T09:29:38.198Z,15.23
2023-05-25T09:32:05.367Z,15.23
2023-05-25T09:34:33.451Z,14.25
2023-05-25T09:37:00.240Z,16.50
2023-05-25T09:39:27.301Z,14.35
2023-05-25T09:41:53.785Z,15.90
2023-05-25T09:44:20.446Z,15.02
2023-05-25T09:46:46.920Z,15.63
2023-05-25T09:49:13.810Z,14.90
2023-05-25T09:51:41.027Z,16.83
2023-05-25T09:54:10.288Z,15.13
2023-05-25T09:56:36.899Z,15.48
2023-05-25T09:59:03.579Z,16.00
2023-05-25T10:01:31.999Z,14.50
2023-05-25T10:04:04.404Z,16.88
2023-05-25T10:06:32.865Z,15.57
2023-05-25T10:09:01.282Z,13.38
2023-05-25T10:11:28.933Z,13.93
2023-05-25T10:13:56.063Z,16.52
2023-05-25T10:16:26.342Z,14.65
2023-05-25T10:19:00.805Z,14.15
2023-05-25T10:21:30.403Z,14.05
2023-05-25T10:24:05.784Z,15.63
2023-05-25T10:26:36.371Z,13.73
2023-05-25T10:29:04.133Z,15.48
2023-05-25T10:31:33.289Z,12.32
2023-05-25T10:34:00.804Z,13.30
2023-05-25T10:36:27.492Z,11.32
2023-05-25T10:38:54.987Z,12.27
2023-05-25T10:41:22.417Z,18.42
2023-05-25T10:43:49.504Z,12.80
2023-05-25T10:46:18.010Z,12.30
2023-05-25T10:48:47.976Z,12.77
2023-05-25T10:51:14.835Z,12.23
2023-05-25T10:53:44.551Z,10.85
2023-05-25T10:56:12.608Z,13.43
2023-05-25T10:58:43.062Z,12.10
2023-05-25T11:01:11.519Z,13.68
2023-05-25T11:03:49.110Z,10.80
2023-05-25T11:06:16.807Z,12.88
2023-05-25T11:08:51.014Z,12.23
2023-05-25T11:11:17.608Z,10.82
2023-05-25T11:13:45.621Z,10.35
2023-05-25T11:16:23.589Z,11.10
2023-05-25T11:18:52.388Z,13.75
2023-05-25T11:21:40.259Z,13.18
2023-05-25T11:24:13.563Z,9.85
2023-05-25T11:26:54.169Z,9.98
2023-05-25T11:29:21.652Z,16.38
2023-05-25T11:31:52.631Z,13.23
2023-05-25T11:34:21.449Z,11.75
2023-05-25T11:36:47.792Z,12.80
2023-05-25T11:39:22.272Z,9.02
2023-05-25T11:41:53.898Z,12.80
2023-05-25T11:44:27.672Z,10.23
2023-05-25T11:46:56.656Z,11.95
2023-05-25T11:49:23.982Z,12.93
2023-05-25T11:51:50.561Z,13.93
2023-05-25T11:54:24.792Z,10.90
2023-05-25T11:56:51.449Z,11.75
2023-05-25T11:59:18.182Z,10.30
2023-05-25T12:01:55.451Z,11.57
2023-05-25T12:04:23.979Z,10.63
2023-05-25T12:06:50.912Z,11.70
2023-05-25T12:09:21.230Z,10.50
2023-05-25T12:11:48.139Z,12.07
2023-05-25T12:14:15.846Z,11.50
2023-05-25T12:16:42.873Z,10.23
2023-05-25T12:19:10.884Z,11.85
2023-05-25T12:21:39.163Z,10.48
2023-05-25T12:24:06.456Z,8.18
2023-05-25T12:26:33.105Z,8.90
2023-05-25T12:29:00.525Z,10.68
2023-05-25T12:31:28.214Z,10.57
2023-05-25T12:34:10.719Z,11.02
2023-05-25T12:36:45.918Z,12.27
2023-05-25T12:39:13.978Z,9.48
2023-05-25T12:41:47.446Z,12.40
2023-05-25T12:44:21.447Z,9.43
2023-05-25T12:46:48.475Z,13.85
2023-05-25T12:49:26.033Z,9.55
2023-05-25T12:51:52.742Z,10.20
2023-05-25T12:54:36.993Z,9.70
2023-05-25T12:57:05.037Z,14.60
2023-05-25T12:59:32.185Z,10.18
2023-05-25T13:01:58.654Z,13.27
2023-05-25T13:04:25.810Z,8.90
2023-05-25T13:06:52.404Z,12.13
2023-05-25T13:09:18.757Z,9.70
2023-05-25T13:11:45.212Z,11.20
2023-05-25T13:14:11.581Z,10.20
2023-05-25T13:16:43.863Z,10.20
2023-05-25T13:19:10.292Z,10.10
2023-05-25T13:21:37.312Z,12.43
2023-05-25T13:24:03.797Z,12.15
2023-05-25T13:26:30.139Z,11.63
2023-05-25T13:28:56.588Z,12.35
2023-05-25T13:31:25.450Z,15.05
2023-05-25T13:33:51.976Z,11.13
2023-05-25T13:36:18.386Z,15.60
2023-05-25T13:38:45.628Z,11.93
2023-05-25T13:41:12.199Z,14.63
2023-05-25T13:43:38.573Z,11.57
2023-05-25T13:46:04.995Z,10.98
2023-05-25T13:48:31.434Z,10.23
2023-05-25T13:51:02.423Z,10.32
2023-05-25T13:53:28.935Z,12.02
2023-05-25T13:55:55.983Z,10.57
2023-05-25T13:58:24.167Z,10.63
2023-05-25T14:00:50.921Z,10.65
2023-05-25T14:03:17.380Z,9.18
2023-05-25T14:05:44.027Z,10.38
2023-05-25T14:08:11.932Z,13.13
2023-05-25T14:10:38.523Z,13.05
2023-05-25T14:13:05.547Z,14.35
2023-05-25T14:15:31.942Z,13.07
2023-05-25T14:17:58.406Z,11.63
2023-05-25T14:20:25.658Z,15.35
2023-05-25T14:22:52.422Z,14.40
2023-05-25T14:25:18.999Z,12.50
2023-05-25T14:27:45.450Z,12.32
2023-05-25T14:30:12.883Z,13.85
2023-05-25T14:32:39.318Z,12.85
2023-05-25T14:35:06.647Z,12.55
2023-05-25T14:37:33.003Z,15.23
2023-05-25T14:39:59.935Z,15.55
2023-05-25T14:42:26.311Z,14.32
2023-05-25T14:44:52.654Z,13.55
2023-05-25T14:47:20.166Z,13.32
2023-05-25T14:49:46.675Z,16.67
2023-05-25T14:52:13.054Z,17.27
2023-05-25T14:54:43.968Z,15.23
2023-05-25T14:57:10.795Z,15.23
2023-05-25T14:59:37.253Z,14.55
2023-05-25T15:02:04.099Z,14.93
2023-05-25T15:04:31.204Z,15.30
2023-05-25T15:06:57.771Z,11.50
2023-05-25T15:09:24.198Z,11.02
2023-05-25T15:11:50.596Z,13.20
2023-05-25T15:14:16.938Z,12.13
2023-05-25T15:16:43.559Z,10.05
2023-05-25T15:19:12.691Z,10.10
2023-05-25T15:21:40.939Z,10.50
2023-05-25T15:24:07.355Z,11.25
2023-05-25T15:26:33.684Z,10.88
2023-05-25T15:29:00.108Z,9.43
2023-05-25T15:31:26.493Z,9.77
2023-05-25T15:33:58.678Z,9.52
2023-05-25T15:36:25.721Z,12.02
2023-05-25T15:38:52.885Z,9.55
2023-05-25T15:41:19.235Z,10.88
2023-05-25T15:43:50.800Z,10.25
2023-05-25T15:46:17.265Z,12.98
2023-05-25T15:48:43.618Z,13.38
2023-05-25T15:51:10.323Z,14.60
2023-05-25T15:53:36.669Z,9.43
2023-05-25T15:56:03.764Z,11.15
2023-05-25T15:58:33.430Z,10.45
2023-05-25T16:01:08.319Z,11.20
2023-05-25T16:03:34.825Z,10.90
2023-05-25T16:06:01.730Z,10.50
2023-05-25T16:08:28.061Z,12.15
2023-05-25T16:10:54.414Z,10.20
2023-05-25T16:13:21.430Z,12.68
2023-05-25T16:15:47.845Z,12.40
2023-05-25T16:18:15.823Z,11.40
2023-05-25T16:20:43.093Z,13.10
2023-05-25T16:23:09.536Z,11.43
2023-05-25T16:25:35.955Z,10.35
2023-05-25T16:28:02.357Z,10.40
2023-05-25T16:30:29.368Z,12.98
2023-05-25T16:32:55.745Z,13.90
2023-05-25T16:35:22.171Z,9.68
2023-05-25T16:37:48.545Z,12.63
2023-05-25T16:40:14.980Z,11.10
2023-05-25T16:42:41.347Z,12.68
2023-05-25T16:45:08.655Z,9.52
2023-05-25T16:47:35.824Z,8.70
2023-05-25T16:50:02.298Z,10.52
2023-05-25T16:52:28.639Z,16.48
2023-05-25T16:54:55.608Z,14.25
2023-05-25T16:57:29.280Z,13.82
2023-05-25T16:59:55.763Z,12.32
2023-05-25T17:02:22.253Z,9.52
2023-05-25T17:04:49.401Z,15.15
2023-05-25T17:07:17.662Z,12.18
2023-05-25T17:09:44.361Z,11.60
2023-05-25T17:12:10.790Z,10.13
2023-05-25T17:14:37.321Z,9.23
2023-05-25T17:17:09.607Z,9.48
2023-05-25T17:19:35.983Z,10.85
2023-05-25T17:22:03.006Z,13.90
2023-05-25T17:24:29.354Z,26.73
2023-05-25T17:26:55.809Z,17.00
2023-05-25T17:29:22.181Z,11.68
2023-05-25T17:31:49.374Z,22.02
2023-05-25T17:34:15.835Z,12.50
2023-05-25T17:36:42.534Z,9.07
2023-05-25T17:39:09.538Z,10.13
2023-05-25T17:41:35.936Z,5.88
2023-05-25T17:44:02.410Z,8.95
2023-05-25T17:46:29.022Z,8.38
2023-05-25T17:48:55.554Z,8.52
2023-05-25T17:51:23.481Z,8.95
2023-05-25T17:53:49.910Z,7.93
2023-05-25T17:56:17.058Z,9.98
2023-05-25T17:58:46.593Z,9.85
2023-05-25T18:01:13.364Z,10.30
2023-05-25T18:03:40.495Z,8.32
2023-05-25T18:06:07.002Z,7.60
2023-05-25T18:08:33.442Z,8.90
2023-05-25T18:10:59.821Z,8.40
2023-05-25T18:13:26.881Z,11.25
2023-05-25T18:15:53.554Z,10.88
2023-05-25T18:18:22.466Z,14.75
2023-05-25T18:20:48.965Z,11.40
2023-05-25T18:23:15.567Z,10.90
2023-05-25T18:25:42.052Z,8.23
2023-05-25T18:28:08.518Z,10.95
2023-05-25T18:30:35.497Z,17.85
2023-05-25T18:33:01.909Z,32.13
2023-05-25T18:35:28.317Z,26.85
2023-05-25T18:37:54.695Z,43.65
2023-05-25T18:40:21.110Z,52.45
2023-05-25T18:42:47.480Z,42.65
2023-05-25T18:45:14.412Z,29.40
2023-05-25T18:47:41.563Z,24.13
2023-05-25T18:50:08.740Z,21.92
2023-05-25T18:52:35.090Z,15.95
2023-05-25T18:55:01.535Z,16.65
2023-05-25T18:57:28.236Z,15.93
2023-05-25T18:59:54.765Z,13.63
2023-05-25T19:02:21.305Z,12.00
2023-05-25T19:04:48.516Z,14.68
2023-05-25T19:07:14.891Z,16.27
2023-05-25T19:09:41.629Z,13.75
2023-05-25T19:12:08.613Z,14.27
2023-05-25T19:14:34.975Z,15.13
2023-05-25T19:17:01.404Z,12.75
2023-05-25T19:19:27.809Z,18.25
2023-05-25T19:21:54.884Z,45.90
2023-05-25T19:24:21.262Z,61.85
2023-05-25T19:26:49.654Z,90.38
2023-05-25T19:29:16.379Z,100.32
2023-05-25T19:31:42.844Z,119.28
2023-05-25T19:34:09.264Z,126.22
2023-05-25T19:36:35.990Z,108.35
2023-05-25T19:39:04.123Z,85.15
2023-05-25T19:41:30.502Z,50.03
2023-05-25T19:43:56.864Z,37.10
2023-05-25T19:46:23.297Z,28.27
2023-05-25T19:48:49.978Z,24.70
2023-05-25T19:51:16.420Z,18.80
2023-05-25T19:53:42.784Z,18.15
2023-05-25T19:56:09.814Z,16.30
2023-05-25T19:58:36.202Z,16.98
2023-05-25T20:01:02.652Z,20.52
2023-05-25T20:03:29.349Z,18.65
2023-05-25T20:05:57.110Z,17.05
2023-05-25T20:08:24.777Z,16.20
2023-05-25T20:10:52.062Z,16.42
2023-05-25T20:13:19.192Z,16.48
2023-05-25T20:15:45.887Z,18.67
2023-05-25T20:18:12.729Z,15.35
2023-05-25T20:20:39.263Z,19.80
2023-05-25T20:23:05.860Z,15.55
2023-05-25T20:25:32.245Z,14.90
2023-05-25T20:27:58.677Z,16.55
2023-05-25T20:30:26.272Z,15.02
2023-05-25T20:32:52.720Z,19.25
2023-05-25T20:35:19.152Z,22.63
2023-05-25T20:37:45.707Z,18.02
2023-05-25T20:40:13.007Z,19.63
2023-05-25T20:42:39.351Z,20.48
2023-05-25T20:45:06.748Z,19.20
2023-05-25T20:47:33.945Z,18.95
2023-05-25T20:50:00.404Z,17.77
2023-05-25T20:52:26.753Z,17.45
2023-05-25T20:54:53.090Z,17.48
2023-05-25T20:57:19.445Z,17.83
2023-05-25T20:59:45.799Z,16.63
2023-05-25T21:02:12.244Z,17.58
2023-05-25T21:04:39.319Z,18.77
2023-05-25T21:07:05.738Z,19.08
2023-05-25T21:09:32.090Z,21.25
2023-05-25T21:11:58.564Z,18.52
2023-05-25T21:14:26.533Z,18.75
2023-05-25T21:16:52.941Z,17.35
2023-05-25T21:19:19.485Z,18.45
2023-05-25T21:21:46.506Z,17.33
2023-05-25T21:24:12.847Z,19.90
2023-05-25T21:26:39.400Z,21.77
2023-05-25T21:29:06.918Z,19.13
2023-05-25T21:31:33.331Z,17.83
2023-05-25T21:34:00.434Z,19.83
2023-05-25T21:36:27.051Z,17.88
2023-05-25T21:38:54.058Z,17.63
2023-05-25T21:41:20.456Z,16.58
2023-05-25T21:43:47.057Z,17.85
2023-05-25T21:46:13.422Z,18.50
2023-05-25T21:48:39.759Z,18.50
2023-05-25T21:51:06.131Z,19.85
2023-05-25T21:53:34.687Z,18.20
2023-05-25T21:56:03.043Z,21.35
2023-05-25T21:58:29.407Z,20.88
2023-05-25T22:00:55.784Z,19.90
2023-05-25T22:03:22.141Z,25.92
2023-05-25T22:05:48.676Z,36.67
2023-05-25T22:08:15.062Z,58.25
2023-05-25T22:10:41.502Z,69.32
2023-05-25T22:13:08.546Z,71.53
2023-05-25T22:15:34.928Z,69.72
2023-05-25T22:18:01.367Z,58.78
2023-05-25T22:20:27.854Z,46.08
2023-05-25T22:22:54.193Z,33.17
2023-05-25T22:25:20.664Z,33.38
2023-05-25T22:27:46.995Z,28.98
2023-05-25T22:30:14.288Z,23.27
2023-05-25T22:32:40.662Z,24.60
2023-05-25T22:35:07.885Z,22.58
2023-05-25T22:37:34.257Z,24.88
2023-05-25T22:40:00.675Z,21.75
2023-05-25T22:42:27.054Z,23.85
2023-05-25T22:44:53.401Z,24.17
2023-05-25T22:47:20.419Z,22.08
2023-05-25T22:49:46.792Z,21.83
2023-05-25T23:00:10.887Z,20.52
2023-05-25T23:02:37.309Z,22.42
2023-05-25T23:05:05.602Z,22.17
2023-05-25T23:07:32.157Z,22.75
2023-05-25T23:09:58.485Z,22.25
2023-05-25T23:12:24.939Z,24.02
2023-05-25T23:14:52.716Z,23.77
2023-05-25T23:17:19.116Z,20.83
2023-05-25T23:19:45.525Z,21.08
2023-05-25T23:22:11.854Z,21.17
2023-05-25T23:24:38.307Z,20.98
2023-05-25T23:27:06.084Z,25.13
2023-05-25T23:29:32.490Z,19.65
2023-05-25T23:31:59.668Z,20.60
2023-05-25T23:34:26.122Z,18.80
2023-05-25T23:36:53.353Z,20.13
2023-05-25T23:39:19.717Z,20.13
2023-05-25T23:41:46.097Z,21.60
2023-05-25T23:44:12.545Z,18.60
2023-05-25T23:46:38.958Z,19.73
2023-05-25T23:49:06.020Z,20.52
2023-05-25T23:51:32.516Z,21.70
2023-05-25T23:53:58.871Z,24.88
2023-05-25T23:56:27.103Z,19.10
2023-05-25T23:58:53.609Z,20.40
